This is the latest recevied weather packets stored in our database for station/object JF2ZGN-13. If no packets are shown the sender has not sent any weather packets the latest 10 day(s).
| Time | Temp. | Humidity | Pressure | Rain* | Wind** | Luminosity | Snow |
|---|---|---|---|---|---|---|---|
| 1787576734 | 20.56° C | 83% | 912.3 hPa | 0 mm | - | - | - |
| 1787576133 | 20.56° C | 85% | 912.3 hPa | 0 mm | - | - | - |
| 1787575534 | 21.11° C | 83% | 912.3 hPa | 0 mm | - | - | - |
| 1787574933 | 21.11° C | 79% | 912.4 hPa | 0 mm | - | - | - |
| 1787574332 | 21.67° C | 66% | 912 hPa | 0 mm | - | - | - |
| 1787573732 | 20.56° C | 89% | 912.4 hPa | 0 mm | - | - | - |
| 1787573131 | 20.56° C | 90% | 912.4 hPa | 0 mm | - | - | - |
| 1787572530 | 20.56° C | 89% | 912.4 hPa | 0 mm | - | - | - |
| 1787571930 | 20.56° C | 88% | 912.5 hPa | 0 mm | - | - | - |
| 1787571330 | 20.56° C | 87% | 912.5 hPa | 0 mm | - | - | - |
| 1787570730 | 20.56° C | 85% | 912.6 hPa | 0 mm | - | - | - |
| 1787570129 | 21.11° C | 81% | 912.6 hPa | 0 mm | - | - | - |
| 1787569528 | 22.78° C | 66% | 912.5 hPa | 0 mm | - | - | - |
| 1787568928 | 22.78° C | 54% | 912.5 hPa | 0 mm | - | - | - |
| 1787568327 | 22.78° C | 56% | 912.3 hPa | 0 mm | - | - | - |
| 1787567727 | 21.67° C | 62% | 912.2 hPa | 0 mm | - | - | - |
| 1787567130 | 20.56° C | 87% | 912.2 hPa | 0 mm | - | - | - |
| 1787566526 | 20.56° C | 83% | 912.3 hPa | 0 mm | - | - | - |
| 1787565926 | 21.11° C | 80% | 912.1 hPa | 0 mm | - | - | - |
| 1787565325 | 21.11° C | 72% | 911.9 hPa | 0 mm | - | - | - |
| 1787564725 | 20.56° C | 89% | 911.9 hPa | 0 mm | - | - | - |
| 1787564124 | 20.56° C | 88% | 911.9 hPa | 0 mm | - | - | - |
| 1787563524 | 20.56° C | 87% | 911.8 hPa | 0 mm | - | - | - |
| 1787562923 | 20.56° C | 87% | 911.8 hPa | 0 mm | - | - | - |
| 1787562323 | 20.56° C | 86% | 911.8 hPa | 0 mm | - | - | - |
* Rain since midnight (hover to see other rain measurements)
** Current wind speed in m/s (hover to see current wind gust speed)